createdAt,value
2019-02-11T00:01:51.304Z,2.30
2019-02-11T00:06:56.573Z,2.40
2019-02-11T00:12:01.369Z,2.40
2019-02-11T00:17:05.782Z,2.30
2019-02-11T00:22:10.687Z,2.20
2019-02-11T00:27:15.670Z,2.00
2019-02-11T00:32:20.410Z,1.90
2019-02-11T00:37:27.033Z,1.80
2019-02-11T00:42:31.331Z,1.80
2019-02-11T00:47:39.570Z,1.90
2019-02-11T00:52:45.209Z,1.90
2019-02-11T00:57:50.987Z,1.90
2019-02-11T01:02:55.599Z,1.90
2019-02-11T01:07:59.973Z,1.90
2019-02-11T01:13:07.147Z,1.90
2019-02-11T01:18:12.005Z,2.00
2019-02-11T01:23:16.531Z,2.00
2019-02-11T01:28:21.397Z,2.10
2019-02-11T01:33:26.448Z,2.10
2019-02-11T01:38:30.924Z,2.20
2019-02-11T01:43:36.394Z,2.10
2019-02-11T01:48:41.117Z,2.10
2019-02-11T01:53:47.435Z,2.10
2019-02-11T01:58:51.969Z,2.10
2019-02-11T02:03:56.689Z,2.10
2019-02-11T02:09:01.302Z,2.10
2019-02-11T02:14:05.881Z,2.20
2019-02-11T02:19:11.000Z,2.20
2019-02-11T02:24:15.448Z,2.20
2019-02-11T02:29:21.336Z,2.20
2019-02-11T02:34:25.662Z,2.20
2019-02-11T02:39:30.754Z,2.30
2019-02-11T02:44:35.468Z,2.30
2019-02-11T02:49:40.199Z,2.40
2019-02-11T02:54:45.209Z,2.30
2019-02-11T02:59:50.137Z,2.30
2019-02-11T03:04:57.186Z,2.30
2019-02-11T03:10:03.895Z,2.30
2019-02-11T03:15:08.889Z,2.30
2019-02-11T03:20:13.384Z,2.40
2019-02-11T03:25:21.453Z,2.50
2019-02-11T03:30:28.561Z,2.40
2019-02-11T03:35:35.349Z,2.40
2019-02-11T03:40:40.364Z,2.40
2019-02-11T03:45:44.982Z,2.40
2019-02-11T03:50:49.759Z,2.40
2019-02-11T03:55:55.701Z,2.30
2019-02-11T04:01:00.355Z,2.30
2019-02-11T04:06:04.907Z,2.20
2019-02-11T04:11:11.694Z,2.20
2019-02-11T04:16:16.046Z,2.20
2019-02-11T04:21:21.007Z,2.20
2019-02-11T04:26:25.559Z,2.20
2019-02-11T04:31:30.085Z,2.20
2019-02-11T04:36:35.191Z,2.20
2019-02-11T04:41:43.220Z,2.10
2019-02-11T04:46:47.943Z,2.10
2019-02-11T04:51:52.521Z,2.10
2019-02-11T04:56:57.296Z,2.10
2019-02-11T05:02:02.926Z,2.00
2019-02-11T05:07:07.603Z,2.00
2019-02-11T05:12:12.598Z,2.10
2019-02-11T05:17:18.283Z,2.00
2019-02-11T05:22:22.865Z,2.10
2019-02-11T05:27:28.677Z,2.10
2019-02-11T05:32:35.610Z,2.10
2019-02-11T05:37:41.354Z,2.10
2019-02-11T05:42:46.948Z,2.10
2019-02-11T05:47:52.115Z,2.20
2019-02-11T05:52:57.995Z,2.20
2019-02-11T05:58:03.680Z,2.20
2019-02-11T06:03:10.273Z,2.20
2019-02-11T06:08:14.762Z,2.20
2019-02-11T06:13:58.598Z,2.30
2019-02-11T06:19:04.017Z,2.30
2019-02-11T06:24:09.581Z,2.30
2019-02-11T06:29:15.403Z,2.20
2019-02-11T06:34:20.213Z,2.20
2019-02-11T06:39:25.835Z,2.20
2019-02-11T06:44:30.912Z,2.10
2019-02-11T06:49:35.860Z,2.10
2019-02-11T06:54:40.324Z,2.20
2019-02-11T06:59:45.016Z,2.10
2019-02-11T07:04:50.507Z,2.10
2019-02-11T07:09:55.374Z,2.20
2019-02-11T07:15:00.320Z,2.20
2019-02-11T07:20:05.344Z,2.20
2019-02-11T07:25:10.728Z,2.20
2019-02-11T07:30:15.783Z,2.20
2019-02-11T07:35:22.753Z,2.30
2019-02-11T07:40:29.648Z,2.40
2019-02-11T07:45:55.529Z,2.40
2019-02-11T07:51:00.697Z,2.50
2019-02-11T07:56:05.432Z,2.50
2019-02-11T08:01:10.801Z,2.60
2019-02-11T08:06:15.519Z,2.60
2019-02-11T08:11:19.954Z,2.60
2019-02-11T08:16:24.906Z,2.70
2019-02-11T08:21:29.542Z,2.80
2019-02-11T08:26:34.538Z,2.80
2019-02-11T08:31:39.360Z,2.90
2019-02-11T08:36:44.548Z,2.90
2019-02-11T08:41:49.012Z,3.00
2019-02-11T08:46:53.357Z,3.00
2019-02-11T08:51:58.276Z,3.00
2019-02-11T08:57:03.000Z,3.00
2019-02-11T09:02:07.978Z,3.10
2019-02-11T09:07:12.673Z,3.10
2019-02-11T09:12:17.855Z,3.30
2019-02-11T09:17:22.705Z,3.40
2019-02-11T09:22:27.662Z,3.40
2019-02-11T09:27:32.556Z,3.60
2019-02-11T09:32:37.012Z,3.80
2019-02-11T09:37:41.463Z,4.10
2019-02-11T09:42:48.592Z,4.50
2019-02-11T09:47:53.419Z,4.60
2019-02-11T09:52:57.962Z,4.80
2019-02-11T09:58:02.927Z,5.10
2019-02-11T10:03:08.850Z,5.80
2019-02-11T10:08:16.402Z,5.80
2019-02-11T10:13:21.050Z,5.60
2019-02-11T10:18:25.522Z,5.10
2019-02-11T10:23:30.785Z,5.00
2019-02-11T10:28:35.147Z,5.20
2019-02-11T10:33:40.155Z,5.20
2019-02-11T10:38:45.520Z,5.30
2019-02-11T10:43:49.852Z,5.50
2019-02-11T10:48:54.531Z,5.40
2019-02-11T10:53:59.430Z,5.10
2019-02-11T10:59:03.752Z,4.90
2019-02-11T11:04:08.545Z,4.70
2019-02-11T11:09:16.626Z,4.70
2019-02-11T11:14:21.889Z,4.60
2019-02-11T11:19:26.552Z,4.50
2019-02-11T11:24:30.918Z,4.90
2019-02-11T11:29:36.315Z,5.30
2019-02-11T11:34:42.251Z,5.20
2019-02-11T11:39:47.096Z,5.10
2019-02-11T11:44:51.730Z,4.90
2019-02-11T11:49:57.693Z,4.70
2019-02-11T11:55:04.195Z,4.80
2019-02-11T12:00:24.816Z,4.90
2019-02-11T12:05:29.180Z,5.00
2019-02-11T12:10:33.868Z,5.20
2019-02-11T12:15:41.193Z,4.90
2019-02-11T12:20:45.821Z,4.70
2019-02-11T12:25:50.396Z,4.50
2019-02-11T12:30:55.659Z,4.60
2019-02-11T12:36:00.315Z,4.80
2019-02-11T12:41:04.677Z,4.60
2019-02-11T12:46:09.127Z,4.30
2019-02-11T12:51:13.938Z,4.80
2019-02-11T12:56:18.631Z,5.30
2019-02-11T13:01:23.669Z,6.10
2019-02-11T13:06:28.819Z,6.30
2019-02-11T13:11:33.997Z,5.90
2019-02-11T13:16:39.406Z,5.60
2019-02-11T13:21:44.680Z,5.50
2019-02-11T13:26:50.442Z,4.90
2019-02-11T13:31:55.506Z,5.10
2019-02-11T13:37:00.066Z,4.80
2019-02-11T13:42:04.893Z,4.90
2019-02-11T13:47:10.153Z,5.30
2019-02-11T13:52:15.478Z,5.60
2019-02-11T13:57:20.194Z,5.40
2019-02-11T14:02:25.170Z,5.40
2019-02-11T14:07:29.783Z,5.70
2019-02-11T14:12:34.566Z,6.40
2019-02-11T14:17:40.705Z,6.90
2019-02-11T14:22:45.493Z,6.50
2019-02-11T14:27:49.937Z,6.10
2019-02-11T14:32:54.564Z,5.70
2019-02-11T14:38:03.059Z,5.60
2019-02-11T14:43:08.691Z,5.50
2019-02-11T14:48:26.755Z,5.30
2019-02-11T14:53:19.853Z,5.20
2019-02-11T14:58:24.647Z,5.00
2019-02-11T15:03:30.013Z,4.90
2019-02-11T15:08:34.608Z,4.90
2019-02-11T15:13:39.694Z,4.80
2019-02-11T15:18:44.367Z,4.80
2019-02-11T15:23:49.121Z,4.80
2019-02-11T15:28:54.236Z,4.90
2019-02-11T15:34:00.767Z,4.70
2019-02-11T15:39:09.526Z,4.50
2019-02-11T15:44:14.642Z,4.30
2019-02-11T15:49:25.544Z,4.10
2019-02-11T15:54:30.196Z,3.80
2019-02-11T15:59:35.889Z,3.80
2019-02-11T16:04:41.212Z,3.70
2019-02-11T16:09:46.057Z,3.70
2019-02-11T16:14:50.931Z,3.70
2019-02-11T16:19:59.428Z,3.80
2019-02-11T16:25:08.717Z,3.80
2019-02-11T16:30:16.255Z,3.70
2019-02-11T16:35:24.074Z,3.60
2019-02-11T16:40:29.036Z,3.50
2019-02-11T16:45:34.997Z,3.40
2019-02-11T16:50:44.439Z,3.30
2019-02-11T16:55:52.869Z,3.20
2019-02-11T17:00:58.856Z,3.00
2019-02-11T17:06:04.749Z,2.80
2019-02-11T17:11:10.848Z,2.60
2019-02-11T17:16:17.337Z,2.40
2019-02-11T17:21:23.773Z,2.30
2019-02-11T17:26:30.113Z,2.50
2019-02-11T17:31:36.268Z,2.60
2019-02-11T17:36:42.137Z,2.80
2019-02-11T17:41:47.431Z,2.80
2019-02-11T17:46:53.223Z,2.80
2019-02-11T17:51:59.257Z,2.90
2019-02-11T17:57:05.319Z,2.80
2019-02-11T18:02:13.955Z,2.80
2019-02-11T18:07:19.636Z,2.80
2019-02-11T18:12:25.255Z,2.80
2019-02-11T18:17:30.371Z,2.80
2019-02-11T18:22:35.918Z,2.80
2019-02-11T18:27:41.205Z,2.90
2019-02-11T18:32:46.961Z,2.90
2019-02-11T18:37:55.036Z,3.00
2019-02-11T18:43:00.175Z,2.90
2019-02-11T18:48:05.625Z,2.90
2019-02-11T18:53:10.188Z,2.80
2019-02-11T18:58:15.490Z,2.80
2019-02-11T19:03:20.674Z,2.80
2019-02-11T19:08:28.798Z,2.80
2019-02-11T19:13:33.635Z,2.70
2019-02-11T19:18:39.395Z,2.70
2019-02-11T19:23:45.665Z,2.70
2019-02-11T19:28:52.218Z,2.70
2019-02-11T19:33:57.274Z,2.70
2019-02-11T19:39:02.271Z,2.70
2019-02-11T19:44:07.383Z,2.70
2019-02-11T19:49:19.090Z,2.70
2019-02-11T19:54:24.427Z,2.60
2019-02-11T19:59:30.090Z,2.60
2019-02-11T20:04:37.535Z,2.60
2019-02-11T20:09:42.360Z,2.60
2019-02-11T20:14:47.939Z,2.60
2019-02-11T20:20:00.119Z,2.70
2019-02-11T20:25:02.186Z,2.70
2019-02-11T20:30:12.494Z,2.60
2019-02-11T20:35:19.384Z,2.60
2019-02-11T20:40:26.225Z,2.60
2019-02-11T20:45:31.304Z,2.50
2019-02-11T20:50:37.102Z,2.50
2019-02-11T20:55:48.735Z,2.50
2019-02-11T21:00:54.901Z,2.50
2019-02-11T21:06:03.242Z,2.60
2019-02-11T21:11:13.549Z,2.60
2019-02-11T21:16:18.986Z,2.40
2019-02-11T21:21:25.235Z,2.40
2019-02-11T21:26:33.461Z,2.40
2019-02-11T21:31:38.555Z,2.30
2019-02-11T21:36:44.040Z,2.20
2019-02-11T21:41:52.880Z,2.20
2019-02-11T21:46:57.294Z,2.20
2019-02-11T21:52:03.204Z,2.00
2019-02-11T21:57:13.092Z,2.00
2019-02-11T22:02:18.027Z,1.90
2019-02-11T22:07:23.353Z,1.80
2019-02-11T22:12:30.117Z,1.70
2019-02-11T22:17:36.272Z,1.50
2019-02-11T22:22:45.358Z,1.40
2019-02-11T22:27:50.890Z,1.30
2019-02-11T22:32:56.296Z,1.10
2019-02-11T22:38:01.170Z,0.90
2019-02-11T22:43:06.559Z,0.80
2019-02-11T22:48:11.214Z,0.60
2019-02-11T22:53:16.448Z,0.50
2019-02-11T22:58:21.659Z,0.40
2019-02-11T23:03:26.450Z,0.30
2019-02-11T23:08:31.646Z,0.30
2019-02-11T23:13:38.530Z,0.40
2019-02-11T23:18:44.021Z,0.30
2019-02-11T23:23:49.228Z,0.20
2019-02-11T23:28:54.751Z,0.30
2019-02-11T23:33:59.596Z,0.40
2019-02-11T23:39:08.037Z,0.50
2019-02-11T23:44:13.861Z,0.40
2019-02-11T23:49:19.065Z,0.20
2019-02-11T23:54:23.807Z,0.10
2019-02-11T23:59:30.569Z,0.00
